createdAt,value
2022-12-22T09:24:13.080Z,0.50
2022-12-22T09:25:12.865Z,0.60
2022-12-22T09:26:12.902Z,0.30
2022-12-22T09:27:12.875Z,0.60
2022-12-22T09:28:12.861Z,0.80
2022-12-22T09:29:12.854Z,0.50
2022-12-22T09:30:12.898Z,2.20
2022-12-22T09:31:12.869Z,1.10
2022-12-22T09:32:13.995Z,0.50
2022-12-22T09:33:13.971Z,0.40
2022-12-22T09:34:17.949Z,0.40
2022-12-22T09:35:13.985Z,1.00
2022-12-22T09:36:13.959Z,0.40
2022-12-22T09:37:13.946Z,3.50
2022-12-22T09:38:13.940Z,2.30
2022-12-22T09:39:13.918Z,1.00
2022-12-22T09:40:13.876Z,0.30
2022-12-22T09:41:13.933Z,0.20
2022-12-22T09:42:13.931Z,1.20
2022-12-22T09:43:13.909Z,0.70
2022-12-22T09:44:13.886Z,3.20
2022-12-22T09:45:17.288Z,2.70
2022-12-22T09:46:14.954Z,3.60
2022-12-22T09:47:13.873Z,2.10
2022-12-22T09:48:13.881Z,0.70
2022-12-22T09:49:13.882Z,0.70
2022-12-22T09:50:13.858Z,0.70
2022-12-22T09:51:13.870Z,0.50
2022-12-22T09:52:14.580Z,0.30
2022-12-22T09:53:13.816Z,0.50
2022-12-22T09:54:13.856Z,0.80
2022-12-22T09:55:13.822Z,0.80
2022-12-22T09:56:13.829Z,0.30
2022-12-22T09:57:13.819Z,0.30
2022-12-22T09:58:13.812Z,0.30
2022-12-22T09:59:13.815Z,0.40
2022-12-22T10:00:13.793Z,0.40
2022-12-22T10:01:13.844Z,0.30
2022-12-22T10:02:13.821Z,0.40
2022-12-22T10:03:13.804Z,0.30
2022-12-22T10:04:13.766Z,0.20
2022-12-22T10:05:13.783Z,0.30
2022-12-22T10:06:13.796Z,0.30
2022-12-22T10:07:13.746Z,0.40
2022-12-22T10:08:13.755Z,0.20
2022-12-22T10:09:43.969Z,0.20
2022-12-22T10:10:14.744Z,0.30
2022-12-22T10:11:13.751Z,0.50
2022-12-22T10:12:13.749Z,0.50
2022-12-22T10:13:13.700Z,0.10
2022-12-22T10:14:13.720Z,0.40
2022-12-22T10:15:20.041Z,0.40
2022-12-22T10:16:14.731Z,0.20
2022-12-22T10:17:13.713Z,0.30
2022-12-22T10:18:13.692Z,0.10
2022-12-22T10:19:13.692Z,0.50
2022-12-22T10:20:13.660Z,0.20
2022-12-22T10:21:13.673Z,0.20
2022-12-22T10:22:14.749Z,0.20
2022-12-22T10:23:13.628Z,0.20
2022-12-22T10:24:13.645Z,0.30
2022-12-22T10:25:13.649Z,0.40
2022-12-22T10:26:30.837Z,0.00
2022-12-22T10:27:15.645Z,0.10
2022-12-22T10:28:13.630Z,0.20
2022-12-22T10:29:13.609Z,0.20
2022-12-22T10:30:13.574Z,0.40
2022-12-22T10:31:13.585Z,0.20
2022-12-22T10:32:13.657Z,0.20
2022-12-22T10:33:13.674Z,0.20
2022-12-22T10:34:13.579Z,0.30
2022-12-22T10:35:13.581Z,0.30
2022-12-22T10:36:13.598Z,0.30
2022-12-22T10:37:13.563Z,0.10
2022-12-22T10:38:21.611Z,0.20
2022-12-22T10:39:14.573Z,0.40
2022-12-22T10:40:13.520Z,0.10
2022-12-22T10:41:13.549Z,0.10
2022-12-22T10:42:13.547Z,0.10
2022-12-22T10:43:13.512Z,0.20
2022-12-22T10:44:13.616Z,0.20
2022-12-22T10:45:13.497Z,0.30
2022-12-22T10:46:13.556Z,0.10
2022-12-22T10:47:17.410Z,0.30
2022-12-22T10:48:14.516Z,0.10
2022-12-22T10:49:13.502Z,0.20
2022-12-22T10:50:13.482Z,0.10
2022-12-22T10:51:13.460Z,0.10
2022-12-22T10:52:13.483Z,0.20
2022-12-22T10:53:13.406Z,0.40
2022-12-22T10:54:13.465Z,0.10
2022-12-22T10:55:13.589Z,0.10
2022-12-22T10:56:13.471Z,0.00
2022-12-22T10:57:13.434Z,0.20
2022-12-22T10:58:13.508Z,0.10
2022-12-22T10:59:13.437Z,0.30
2022-12-22T11:00:13.441Z,0.50
2022-12-22T11:01:13.435Z,0.30
2022-12-22T11:02:13.557Z,0.10
2022-12-22T11:03:16.159Z,0.30
2022-12-22T11:04:14.417Z,0.30
2022-12-22T11:05:13.379Z,0.10
2022-12-22T11:06:13.392Z,0.30
2022-12-22T11:07:13.343Z,0.10
2022-12-22T11:08:13.419Z,0.20
2022-12-22T11:09:32.489Z,0.30
2022-12-22T11:10:15.376Z,0.20
2022-12-22T11:11:13.481Z,0.50
2022-12-22T11:12:13.366Z,0.50
2022-12-22T11:13:13.341Z,0.20
2022-12-22T11:14:13.332Z,0.20
2022-12-22T11:15:17.181Z,0.40
2022-12-22T11:16:14.590Z,0.30
2022-12-22T11:17:13.333Z,0.20
2022-12-22T11:18:13.380Z,0.30
2022-12-22T11:19:13.333Z,0.30
2022-12-22T11:20:13.331Z,0.40
2022-12-22T11:21:16.185Z,0.50
2022-12-22T11:22:13.289Z,0.40
2022-12-22T11:23:13.293Z,0.40
2022-12-22T11:24:13.296Z,0.30
2022-12-22T11:25:13.229Z,0.20
2022-12-22T11:26:13.220Z,0.40
2022-12-22T11:27:13.352Z,0.90
2022-12-22T11:28:13.228Z,0.30
2022-12-22T11:29:13.201Z,0.30
2022-12-22T11:30:13.197Z,0.20
2022-12-22T11:31:13.304Z,0.40
2022-12-22T11:32:13.216Z,0.10
2022-12-22T11:33:13.325Z,0.30
2022-12-22T11:34:19.026Z,0.20
2022-12-22T11:35:15.213Z,0.10
2022-12-22T11:36:13.179Z,0.30
2022-12-22T11:37:13.230Z,0.40
2022-12-22T11:38:13.266Z,0.20
2022-12-22T11:39:13.169Z,0.20
2022-12-22T11:40:13.178Z,0.30
2022-12-22T11:41:13.124Z,0.80
2022-12-22T11:42:13.133Z,1.70
2022-12-22T11:43:13.118Z,0.80
2022-12-22T11:44:13.149Z,1.10
2022-12-22T11:45:13.136Z,0.90
2022-12-22T11:46:13.215Z,0.90
2022-12-22T11:47:13.133Z,0.60
2022-12-22T11:48:13.148Z,0.40
2022-12-22T11:49:13.180Z,0.30
2022-12-22T11:51:00.867Z,0.10
2022-12-22T11:51:14.595Z,0.30
2022-12-22T11:52:14.078Z,0.30
2022-12-22T11:53:13.114Z,0.20
2022-12-22T11:54:13.084Z,0.10
2022-12-22T11:55:13.123Z,0.30
2022-12-22T11:56:13.073Z,0.10
2022-12-22T11:57:13.071Z,0.20
2022-12-22T11:58:13.044Z,0.20
2022-12-22T11:59:13.615Z,0.10
2022-12-22T12:00:13.153Z,0.30
2022-12-22T12:01:17.518Z,0.20
2022-12-22T12:02:14.221Z,0.10
2022-12-22T12:03:13.055Z,0.20
2022-12-22T12:04:13.102Z,0.10
2022-12-22T12:05:12.985Z,0.40
2022-12-22T12:06:13.072Z,0.30
2022-12-22T12:07:12.989Z,0.30
2022-12-22T12:08:12.960Z,0.40
2022-12-22T12:09:12.951Z,0.30
2022-12-22T12:10:14.656Z,0.40
2022-12-22T12:11:13.063Z,0.90
2022-12-22T12:12:12.967Z,1.60
2022-12-22T12:13:12.985Z,5.30
2022-12-22T12:14:12.931Z,0.70
2022-12-22T12:15:12.945Z,0.60
2022-12-22T12:16:13.003Z,6.30
2022-12-22T12:17:13.035Z,2.20
2022-12-22T12:18:12.926Z,1.80
2022-12-22T12:19:12.941Z,1.30
2022-12-22T12:20:12.896Z,1.20
2022-12-22T12:21:12.941Z,0.80
2022-12-22T12:22:12.982Z,0.60
2022-12-22T12:23:12.930Z,1.80
2022-12-22T12:24:12.873Z,3.10
2022-12-22T12:25:12.902Z,5.00
2022-12-22T12:26:12.871Z,3.10
2022-12-22T12:27:12.864Z,1.90
2022-12-22T12:28:12.968Z,1.00
2022-12-22T12:29:12.847Z,0.80
2022-12-22T12:30:37.343Z,0.60
2022-12-22T12:31:14.940Z,0.30
2022-12-22T12:32:12.855Z,0.50
2022-12-22T12:33:13.002Z,0.40
2022-12-22T12:34:12.800Z,0.80
2022-12-22T12:35:12.851Z,0.80
2022-12-22T12:36:12.811Z,0.60
2022-12-22T12:37:12.786Z,2.20
2022-12-22T12:38:32.286Z,1.80
2022-12-22T12:39:14.898Z,1.10
2022-12-22T12:40:12.767Z,0.90
2022-12-22T12:41:12.771Z,2.00
2022-12-22T12:42:13.632Z,5.70
2022-12-22T12:43:16.485Z,1.40
2022-12-22T12:44:12.764Z,1.30
2022-12-22T12:45:12.782Z,1.30
2022-12-22T12:46:12.768Z,3.10
2022-12-22T12:47:12.714Z,1.30
2022-12-22T12:48:12.745Z,0.90
2022-12-22T12:49:12.735Z,0.90
2022-12-22T12:50:12.807Z,0.80
2022-12-22T12:51:12.701Z,1.80
2022-12-22T12:52:12.724Z,2.40
2022-12-22T12:53:12.685Z,1.70
2022-12-22T12:54:12.687Z,1.10
2022-12-22T12:55:17.098Z,0.50
2022-12-22T12:56:14.707Z,1.30
2022-12-22T12:57:12.669Z,0.50
2022-12-22T12:58:12.677Z,0.70
2022-12-22T12:59:12.623Z,1.40
2022-12-22T13:00:12.661Z,1.20
2022-12-22T13:01:12.750Z,0.80
2022-12-22T13:02:12.745Z,1.10
2022-12-22T13:03:25.230Z,0.70
2022-12-22T13:04:14.762Z,0.50
2022-12-22T13:05:12.680Z,0.70
2022-12-22T13:06:12.634Z,1.90
2022-12-22T13:07:12.609Z,2.40
2022-12-22T13:08:12.612Z,0.90
2022-12-22T13:10:13.554Z,0.80
2022-12-22T13:11:12.607Z,1.10
2022-12-22T13:12:14.443Z,0.70
2022-12-22T13:13:13.559Z,0.80
2022-12-22T13:14:12.670Z,1.00
2022-12-22T13:15:12.559Z,2.30
2022-12-22T13:16:12.667Z,2.00
2022-12-22T13:17:12.548Z,1.60
2022-12-22T13:18:12.575Z,3.20
2022-12-22T13:19:12.528Z,3.30
2022-12-22T13:20:12.539Z,3.30
2022-12-22T13:21:51.587Z,2.90
2022-12-22T13:22:14.541Z,1.90
2022-12-22T13:23:12.511Z,1.70
2022-12-22T13:24:24.632Z,1.00
2022-12-22T13:25:14.521Z,1.00
2022-12-22T13:26:12.507Z,0.40
2022-12-22T13:27:12.491Z,0.40
2022-12-22T13:28:12.505Z,0.30
2022-12-22T13:29:12.468Z,0.40
2022-12-22T13:30:13.199Z,0.30
2022-12-22T13:31:13.589Z,0.40
2022-12-22T13:32:12.460Z,0.50
2022-12-22T13:33:12.478Z,0.80
2022-12-22T13:34:12.508Z,1.40
2022-12-22T13:36:14.459Z,0.40
2022-12-22T13:37:12.466Z,0.50
2022-12-22T13:38:12.450Z,0.40
2022-12-22T13:39:12.406Z,0.60
2022-12-22T13:40:12.423Z,0.40
2022-12-22T13:41:12.376Z,0.40
2022-12-22T13:42:12.584Z,0.90
2022-12-22T13:43:12.342Z,0.80
2022-12-22T13:44:12.401Z,0.60
2022-12-22T13:45:12.394Z,0.40
2022-12-22T13:46:12.445Z,0.30
2022-12-22T13:47:12.459Z,0.10
2022-12-22T13:48:12.333Z,0.20
2022-12-22T13:49:12.321Z,0.40
2022-12-22T13:50:12.346Z,0.20
2022-12-22T13:51:12.289Z,0.40
2022-12-22T13:52:12.332Z,0.20
2022-12-22T13:53:22.895Z,0.90
2022-12-22T13:54:13.320Z,2.30
2022-12-22T13:55:12.315Z,0.40
2022-12-22T13:56:12.318Z,0.50
2022-12-22T13:57:12.330Z,0.80
2022-12-22T13:58:12.307Z,0.30
2022-12-22T13:59:12.266Z,1.20
2022-12-22T14:00:12.256Z,0.70
2022-12-22T14:01:12.297Z,0.50
2022-12-22T14:02:12.365Z,0.40
2022-12-22T14:03:21.661Z,0.50
2022-12-22T14:04:14.401Z,0.50
2022-12-22T14:05:12.206Z,0.50
2022-12-22T14:06:12.215Z,0.30
2022-12-22T14:07:12.218Z,0.60
2022-12-22T14:08:12.231Z,0.50
2022-12-22T14:09:12.216Z,0.50
2022-12-22T14:10:12.230Z,0.40
2022-12-22T14:11:12.189Z,0.60
2022-12-22T14:12:12.176Z,0.60
2022-12-22T14:13:12.191Z,0.40
2022-12-22T14:14:12.191Z,0.40
2022-12-22T14:15:12.255Z,0.40
2022-12-22T14:16:12.250Z,0.60
2022-12-22T14:17:12.157Z,0.50
2022-12-22T14:18:12.170Z,0.50
2022-12-22T14:19:12.135Z,0.70
2022-12-22T14:20:12.168Z,0.50
2022-12-22T14:21:12.115Z,0.60
2022-12-22T14:22:12.119Z,0.50
2022-12-22T14:23:12.099Z,0.60
2022-12-22T14:24:12.077Z,0.50
2022-12-22T14:25:12.123Z,0.60
2022-12-22T14:26:12.114Z,0.50
2022-12-22T14:27:12.202Z,0.30
2022-12-22T14:28:12.078Z,0.20
2022-12-22T14:29:12.072Z,0.30
2022-12-22T14:30:12.089Z,0.30
2022-12-22T14:31:12.332Z,0.40
2022-12-22T14:32:12.171Z,0.40
2022-12-22T14:33:12.056Z,0.60
2022-12-22T14:34:12.045Z,0.40
2022-12-22T14:35:12.052Z,0.60
2022-12-22T14:36:12.064Z,0.60
2022-12-22T14:37:12.037Z,0.20
2022-12-22T14:38:12.020Z,0.20
2022-12-22T14:39:12.030Z,0.50
2022-12-22T14:40:12.040Z,0.50
2022-12-22T14:41:12.035Z,0.30
2022-12-22T14:42:12.013Z,0.50
2022-12-22T14:43:11.999Z,0.40
2022-12-22T14:44:11.986Z,0.50
2022-12-22T14:45:11.974Z,0.40
2022-12-22T14:46:12.012Z,0.50
2022-12-22T14:47:12.233Z,0.80
2022-12-22T14:48:12.045Z,0.30
2022-12-22T14:49:12.102Z,0.40
2022-12-22T14:50:11.992Z,1.00
2022-12-22T14:51:11.967Z,1.90
2022-12-22T14:52:11.957Z,1.70
2022-12-22T14:53:11.984Z,1.60
2022-12-22T14:54:11.954Z,0.90
2022-12-22T14:55:11.919Z,1.20
2022-12-22T14:56:11.917Z,0.70
2022-12-22T14:57:16.174Z,0.70
2022-12-22T14:58:12.918Z,0.70
2022-12-22T14:59:11.934Z,0.80
2022-12-22T15:00:11.875Z,0.60
2022-12-22T15:01:11.966Z,0.80
2022-12-22T15:02:12.082Z,3.50
2022-12-22T15:03:11.934Z,2.00
2022-12-22T15:04:12.873Z,2.90
2022-12-22T15:05:11.876Z,2.20
2022-12-22T15:06:11.852Z,1.20
2022-12-22T15:07:29.806Z,1.40
2022-12-22T15:08:13.847Z,1.10
2022-12-22T15:09:11.906Z,1.20
2022-12-22T15:10:16.349Z,1.00
2022-12-22T15:11:14.587Z,1.00
2022-12-22T15:12:11.802Z,0.90
2022-12-22T15:13:11.807Z,0.70
2022-12-22T15:14:11.868Z,0.40
2022-12-22T15:15:11.920Z,0.70
2022-12-22T15:16:11.771Z,1.10
2022-12-22T15:17:11.958Z,0.70
2022-12-22T15:18:11.811Z,0.60
2022-12-22T15:19:11.772Z,1.00
2022-12-22T15:20:11.763Z,0.60
2022-12-22T15:21:11.785Z,0.60
2022-12-22T15:22:11.764Z,0.70
2022-12-22T15:23:11.772Z,0.70
2022-12-22T15:24:11.759Z,0.70
2022-12-22T15:25:11.736Z,0.70
2022-12-22T15:26:11.767Z,1.00
2022-12-22T15:27:11.740Z,0.60
2022-12-22T15:28:11.752Z,0.80
2022-12-22T15:29:11.736Z,0.70
2022-12-22T15:30:11.729Z,1.30
2022-12-22T15:31:11.770Z,0.90
2022-12-22T15:32:11.676Z,0.90
2022-12-22T15:33:11.687Z,1.00
2022-12-22T15:34:11.686Z,0.90
2022-12-22T15:35:11.682Z,1.00
2022-12-22T15:36:11.681Z,0.90
2022-12-22T15:37:11.672Z,1.20
2022-12-22T15:38:11.764Z,1.20
2022-12-22T15:39:11.673Z,0.70
2022-12-22T15:40:11.655Z,1.10
2022-12-22T15:41:11.616Z,1.00
2022-12-22T15:42:11.688Z,1.00
2022-12-22T15:43:28.839Z,0.70
2022-12-22T15:44:13.955Z,0.90
2022-12-22T15:45:11.617Z,0.90
2022-12-22T15:46:11.637Z,1.10
2022-12-22T15:47:11.684Z,1.40
2022-12-22T15:48:11.599Z,1.00
2022-12-22T15:49:11.616Z,0.90
2022-12-22T15:50:11.606Z,1.10
2022-12-22T15:51:11.576Z,1.40
2022-12-22T15:52:11.594Z,1.00
2022-12-22T15:53:11.535Z,1.20
2022-12-22T15:54:11.551Z,0.90
2022-12-22T15:55:11.580Z,1.30
2022-12-22T15:56:17.192Z,1.20
2022-12-22T15:57:13.545Z,0.80
2022-12-22T15:58:11.540Z,1.10
2022-12-22T15:59:11.518Z,1.20
2022-12-22T16:00:11.505Z,1.20
2022-12-22T16:01:11.868Z,1.00
2022-12-22T16:02:11.790Z,1.00
2022-12-22T16:03:11.666Z,2.50
2022-12-22T16:04:11.558Z,2.10
2022-12-22T16:05:11.501Z,1.50
2022-12-22T16:06:11.520Z,0.90
2022-12-22T16:07:11.548Z,1.00
2022-12-22T16:08:17.574Z,1.60
2022-12-22T16:09:12.515Z,1.20
2022-12-22T16:10:11.456Z,1.10
2022-12-22T16:11:11.470Z,1.50
2022-12-22T16:12:11.489Z,1.90
2022-12-22T16:13:11.815Z,2.10
2022-12-22T16:14:11.465Z,2.50
2022-12-22T16:15:11.475Z,2.60
2022-12-22T16:16:11.500Z,2.70
2022-12-22T16:17:11.450Z,2.40
2022-12-22T16:18:11.444Z,1.90
2022-12-22T16:19:11.423Z,3.10
2022-12-22T16:20:11.418Z,3.60
2022-12-22T16:21:11.371Z,3.50
2022-12-22T16:22:11.629Z,4.10
2022-12-22T16:23:11.424Z,4.10
2022-12-22T16:24:11.384Z,3.20
2022-12-22T16:25:11.365Z,3.30
2022-12-22T16:26:11.361Z,2.30
2022-12-22T16:27:11.430Z,2.70
2022-12-22T16:28:11.411Z,2.30
2022-12-22T16:29:11.343Z,3.10
2022-12-22T16:30:12.109Z,3.20
2022-12-22T16:31:11.521Z,2.50
2022-12-22T16:32:17.223Z,1.70
2022-12-22T16:33:11.336Z,2.00
2022-12-22T16:34:11.327Z,2.50
2022-12-22T16:35:11.320Z,2.20
2022-12-22T16:36:11.325Z,2.10
2022-12-22T16:37:11.308Z,3.10
2022-12-22T16:38:17.924Z,2.50
2022-12-22T16:39:13.320Z,3.00
2022-12-22T16:40:11.293Z,2.80
2022-12-22T16:41:11.284Z,3.20
2022-12-22T16:42:11.274Z,2.90
2022-12-22T16:44:59.259Z,2.50
2022-12-22T16:45:56.725Z,2.90
2022-12-22T16:46:56.741Z,2.50
2022-12-22T16:47:56.791Z,2.80
2022-12-22T16:48:56.659Z,2.70
2022-12-22T16:49:56.734Z,2.90
2022-12-22T16:50:56.657Z,2.90
2022-12-22T16:52:16.674Z,2.50
2022-12-22T16:52:57.855Z,3.20
2022-12-22T16:53:57.793Z,3.00
2022-12-22T16:54:57.759Z,2.60
2022-12-22T16:55:57.737Z,2.70
2022-12-22T16:56:57.733Z,2.10
2022-12-22T16:57:57.754Z,2.80
2022-12-22T16:58:57.792Z,3.20
2022-12-22T16:59:57.761Z,2.90
2022-12-22T17:00:57.729Z,2.70
2022-12-22T17:01:57.862Z,3.30
2022-12-22T17:02:58.073Z,2.60
2022-12-22T17:03:57.828Z,2.70
2022-12-22T17:04:57.683Z,2.40
2022-12-22T17:05:57.772Z,2.70
2022-12-22T17:06:57.662Z,2.90
2022-12-22T17:07:57.648Z,3.70
2022-12-22T17:08:57.704Z,3.10
2022-12-22T17:09:57.682Z,2.60
2022-12-22T17:10:57.699Z,3.10
2022-12-22T17:11:57.671Z,3.00
2022-12-22T17:12:57.682Z,3.70
2022-12-22T17:13:57.659Z,2.30
2022-12-22T17:14:57.703Z,2.80
2022-12-22T17:15:57.701Z,2.40
2022-12-22T17:16:57.660Z,2.30
2022-12-22T17:17:57.638Z,2.30
2022-12-22T17:18:57.643Z,2.90
2022-12-22T17:19:57.567Z,3.00
2022-12-22T17:20:57.699Z,3.10
2022-12-22T17:21:57.618Z,3.00
2022-12-22T17:22:57.633Z,2.20
2022-12-22T17:23:57.577Z,2.30
2022-12-22T17:24:57.561Z,2.50
2022-12-22T17:25:57.681Z,2.40
2022-12-22T17:26:57.564Z,2.80
2022-12-22T17:27:57.562Z,2.60
2022-12-22T17:28:57.565Z,2.70
2022-12-22T17:29:57.522Z,2.50
2022-12-22T17:30:57.616Z,2.50
2022-12-22T17:31:57.593Z,2.70
2022-12-22T17:32:57.531Z,2.10
2022-12-22T17:33:57.506Z,1.70
2022-12-22T17:34:57.531Z,2.20
2022-12-22T17:35:57.529Z,2.10
2022-12-22T17:36:57.567Z,2.60
2022-12-22T17:37:57.460Z,2.90
2022-12-22T17:38:57.515Z,3.00
2022-12-22T17:39:57.445Z,2.70
2022-12-22T17:40:57.663Z,2.60
2022-12-22T17:41:57.722Z,2.40
2022-12-22T17:42:57.793Z,2.10
2022-12-22T17:43:57.484Z,2.20
2022-12-22T17:44:57.527Z,2.30
2022-12-22T17:45:57.472Z,2.90
2022-12-22T17:46:57.542Z,2.80
2022-12-22T17:47:57.459Z,3.60
2022-12-22T17:48:57.431Z,3.50
2022-12-22T17:49:57.425Z,3.70
2022-12-22T17:50:57.470Z,3.30
2022-12-22T17:51:57.503Z,3.70
2022-12-22T17:52:57.440Z,5.00
2022-12-22T17:53:57.443Z,5.20
2022-12-22T17:54:57.409Z,4.40
2022-12-22T17:56:12.707Z,4.10
2022-12-22T17:56:59.372Z,4.80
2022-12-22T17:57:57.353Z,4.80
2022-12-22T17:58:57.494Z,4.00
2022-12-22T17:59:57.345Z,3.80
2022-12-22T18:00:57.348Z,5.00
2022-12-22T18:01:57.524Z,4.70
2022-12-22T18:02:57.512Z,4.30
2022-12-22T18:03:57.458Z,5.50
2022-12-22T18:04:57.716Z,5.10
2022-12-22T18:05:59.401Z,5.70
2022-12-22T18:06:57.321Z,4.10
2022-12-22T18:07:57.309Z,3.10
2022-12-22T18:08:57.291Z,4.70
2022-12-22T18:09:57.309Z,5.10
2022-12-22T18:10:57.287Z,5.60
2022-12-22T18:11:58.299Z,7.10
2022-12-22T18:12:57.268Z,6.70
2022-12-22T18:13:57.369Z,7.70
2022-12-22T18:14:57.245Z,8.60
2022-12-22T18:15:57.311Z,8.40
2022-12-22T18:16:57.243Z,5.90
2022-12-22T18:17:57.243Z,7.40
2022-12-22T18:18:57.256Z,5.30
2022-12-22T18:19:57.231Z,7.50
2022-12-22T18:21:06.914Z,9.20
2022-12-22T18:21:58.198Z,3.80
2022-12-22T18:22:57.210Z,4.00
2022-12-22T18:23:57.179Z,2.70
2022-12-22T18:24:57.217Z,4.40
2022-12-22T18:25:57.223Z,4.40
2022-12-22T18:26:57.313Z,3.60
2022-12-22T18:27:57.177Z,2.00
2022-12-22T18:28:57.225Z,2.90
2022-12-22T18:29:57.168Z,6.90
2022-12-22T18:30:57.178Z,4.00
2022-12-22T18:31:57.313Z,3.60
2022-12-22T18:32:57.120Z,3.60
2022-12-22T18:33:57.128Z,5.10
2022-12-22T18:34:57.124Z,4.90
2022-12-22T18:35:57.160Z,4.50
2022-12-22T18:36:57.135Z,4.20
2022-12-22T18:37:57.132Z,4.30
2022-12-22T18:38:57.106Z,5.50
2022-12-22T18:39:57.084Z,4.50
2022-12-22T18:40:57.061Z,5.00
2022-12-22T18:41:57.083Z,4.40
2022-12-22T18:42:57.184Z,5.10
2022-12-22T18:43:57.066Z,5.50
2022-12-22T18:44:57.083Z,5.20
2022-12-22T18:45:57.088Z,6.50
2022-12-22T18:46:57.131Z,7.50
2022-12-22T18:47:57.038Z,6.00
2022-12-22T18:49:03.483Z,5.90
2022-12-22T18:49:58.045Z,4.80
2022-12-22T18:50:57.051Z,5.70
2022-12-22T18:51:57.044Z,5.00
2022-12-22T18:52:57.019Z,5.30
2022-12-22T18:53:57.120Z,4.90
2022-12-22T18:54:57.019Z,4.60
2022-12-22T18:55:57.022Z,4.40
2022-12-22T18:56:56.988Z,4.70
2022-12-22T18:57:57.015Z,4.30
2022-12-22T18:58:56.989Z,5.90
2022-12-22T18:59:57.089Z,4.80
2022-12-22T19:00:57.043Z,4.30
2022-12-22T19:01:57.054Z,5.30
2022-12-22T19:02:57.022Z,5.60
2022-12-22T19:03:56.913Z,4.30
2022-12-22T19:04:57.977Z,11.30
2022-12-22T19:05:56.986Z,13.40
2022-12-22T19:06:56.917Z,11.30
2022-12-22T19:07:56.912Z,11.90
2022-12-22T19:08:56.927Z,7.10
2022-12-22T19:09:56.913Z,8.70
2022-12-22T19:10:56.903Z,9.50
2022-12-22T19:11:56.899Z,8.40
2022-12-22T19:12:56.875Z,10.40
2022-12-22T19:13:57.864Z,10.30
2022-12-22T19:14:56.853Z,7.50
2022-12-22T19:15:56.903Z,9.00
2022-12-22T19:16:56.863Z,10.30
2022-12-22T19:17:56.840Z,9.30
2022-12-22T19:18:56.821Z,8.20
2022-12-22T19:19:56.876Z,9.10
2022-12-22T19:20:56.839Z,8.30
2022-12-22T19:21:56.825Z,7.50
2022-12-22T19:22:56.809Z,19.50
2022-12-22T19:23:56.793Z,8.90
2022-12-22T19:24:56.774Z,6.70
2022-12-22T19:25:56.804Z,8.30
2022-12-22T19:26:56.807Z,6.50
2022-12-22T19:27:56.764Z,6.90
2022-12-22T19:28:56.779Z,6.40
2022-12-22T19:30:02.991Z,9.80
2022-12-22T19:30:58.797Z,8.30
2022-12-22T19:31:56.844Z,10.70
2022-12-22T19:32:56.903Z,12.80
2022-12-22T19:33:56.721Z,8.50
2022-12-22T19:34:56.729Z,6.00
2022-12-22T19:35:56.756Z,5.30
2022-12-22T19:36:56.738Z,5.60
2022-12-22T19:37:56.730Z,9.30
2022-12-22T19:39:03.417Z,7.20
2022-12-22T19:39:58.682Z,6.20
2022-12-22T19:40:56.712Z,6.60
2022-12-22T19:41:56.712Z,5.20
2022-12-22T19:42:56.656Z,7.30
2022-12-22T19:43:56.646Z,6.30
2022-12-22T19:44:56.664Z,4.90
2022-12-22T19:45:56.724Z,3.80
2022-12-22T19:46:56.662Z,3.80
2022-12-22T19:47:56.677Z,3.80
2022-12-22T19:48:56.637Z,4.30
2022-12-22T19:49:56.626Z,3.90
2022-12-22T19:50:56.620Z,4.60
2022-12-22T19:51:57.401Z,4.50
2022-12-22T19:52:56.593Z,4.30
2022-12-22T19:53:56.591Z,4.00
2022-12-22T19:54:56.636Z,3.40
2022-12-22T19:55:56.641Z,3.90
2022-12-22T19:56:56.617Z,3.70
2022-12-22T19:57:56.584Z,3.50
2022-12-22T19:58:56.580Z,3.80
2022-12-22T19:59:56.633Z,3.60
2022-12-22T20:00:56.633Z,4.40
2022-12-22T20:01:57.412Z,4.40
2022-12-22T20:02:56.619Z,4.00
2022-12-22T20:03:56.538Z,4.50
2022-12-22T20:04:56.544Z,3.40
2022-12-22T20:05:56.541Z,3.00
2022-12-22T20:06:56.587Z,3.50
2022-12-22T20:07:56.543Z,3.20
2022-12-22T20:08:56.482Z,3.60
2022-12-22T20:09:56.502Z,3.90
2022-12-22T20:10:58.902Z,3.60
2022-12-22T20:11:56.495Z,3.50
2022-12-22T20:12:56.448Z,4.20
2022-12-22T20:13:56.451Z,3.30
2022-12-22T20:14:56.470Z,3.90
2022-12-22T20:15:56.468Z,2.80
2022-12-22T20:16:56.524Z,4.70
2022-12-22T20:17:56.417Z,4.20
2022-12-22T20:18:56.419Z,4.10
2022-12-22T20:19:56.453Z,5.00
2022-12-22T20:20:57.610Z,4.20
2022-12-22T20:21:57.415Z,4.50
2022-12-22T20:22:56.407Z,3.60
2022-12-22T20:23:56.418Z,3.80
2022-12-22T20:24:56.417Z,3.80
2022-12-22T20:25:56.425Z,3.80
2022-12-22T20:26:56.443Z,3.60
2022-12-22T20:27:56.395Z,4.00
2022-12-22T20:28:56.409Z,3.30
2022-12-22T20:29:56.393Z,3.90
2022-12-22T20:30:56.387Z,3.60
2022-12-22T20:31:56.414Z,3.80
2022-12-22T20:32:56.343Z,4.70
2022-12-22T20:33:56.370Z,3.90
2022-12-22T20:34:56.355Z,3.40
2022-12-22T20:35:56.347Z,3.70
2022-12-22T20:36:56.365Z,3.90
2022-12-22T20:37:56.313Z,3.30
2022-12-22T20:38:56.297Z,2.80
2022-12-22T20:39:56.340Z,3.80
2022-12-22T20:40:56.298Z,3.00
2022-12-22T20:41:56.332Z,3.10
2022-12-22T20:42:56.262Z,3.40
2022-12-22T20:43:56.271Z,2.70
2022-12-22T20:45:02.405Z,3.20
2022-12-22T20:45:57.372Z,3.30
2022-12-22T20:46:56.217Z,4.20
2022-12-22T20:47:56.280Z,3.60
2022-12-22T20:48:56.321Z,2.40
2022-12-22T20:49:56.226Z,3.80
2022-12-22T20:50:56.206Z,3.60
2022-12-22T20:51:56.412Z,2.80
2022-12-22T20:52:56.261Z,3.10
2022-12-22T20:53:56.232Z,2.50
2022-12-22T20:54:56.249Z,3.30
2022-12-22T20:55:56.235Z,3.40
2022-12-22T20:56:56.222Z,3.30
2022-12-22T20:57:56.205Z,2.80
2022-12-22T20:58:56.199Z,3.10
2022-12-22T20:59:56.921Z,3.30
2022-12-22T21:00:57.210Z,3.50
2022-12-22T21:01:56.327Z,3.00
2022-12-22T21:02:56.399Z,2.30
2022-12-22T21:03:56.224Z,2.40
2022-12-22T21:04:56.182Z,2.80
2022-12-22T21:05:56.167Z,2.80
2022-12-22T21:06:57.139Z,2.30
2022-12-22T21:07:56.194Z,2.50
2022-12-22T21:08:56.128Z,1.90
2022-12-22T21:09:56.089Z,2.40
2022-12-22T21:10:56.105Z,2.60
2022-12-22T21:11:56.086Z,3.20
2022-12-22T21:12:56.095Z,2.60
2022-12-22T21:13:56.114Z,2.20
2022-12-22T21:14:56.095Z,2.40
2022-12-22T21:15:56.098Z,2.10
2022-12-22T21:16:56.408Z,3.10
2022-12-22T21:17:58.852Z,2.90
2022-12-22T21:18:56.290Z,3.00
2022-12-22T21:19:56.091Z,4.10
2022-12-22T21:20:56.078Z,3.20
2022-12-22T21:21:56.095Z,2.60
2022-12-22T21:22:56.039Z,2.30
2022-12-22T21:23:56.022Z,3.10
2022-12-22T21:24:56.046Z,2.60
2022-12-22T21:25:55.992Z,2.60
2022-12-22T21:26:56.018Z,2.60
2022-12-22T21:27:55.998Z,2.70
2022-12-22T21:28:55.991Z,2.90
2022-12-22T21:29:56.001Z,2.60
2022-12-22T21:30:56.045Z,2.90
2022-12-22T21:31:55.967Z,3.50
2022-12-22T21:32:55.984Z,2.70
2022-12-22T21:33:55.992Z,3.10
2022-12-22T21:34:55.925Z,3.50
2022-12-22T21:35:55.963Z,2.80
2022-12-22T21:36:55.935Z,2.50
2022-12-22T21:37:55.947Z,3.10
2022-12-22T21:38:55.920Z,2.70
2022-12-22T21:39:55.902Z,3.20
2022-12-22T21:40:55.926Z,2.60
2022-12-22T21:41:55.944Z,2.90
2022-12-22T21:42:55.894Z,2.90
2022-12-22T21:43:55.910Z,3.30
2022-12-22T21:44:55.901Z,3.30
2022-12-22T21:45:55.931Z,3.80
2022-12-22T21:46:55.969Z,4.30
2022-12-22T21:47:55.880Z,3.80
2022-12-22T21:48:55.884Z,3.80
2022-12-22T21:49:55.869Z,3.30
2022-12-22T21:50:55.870Z,3.10
2022-12-22T21:51:55.895Z,2.70
2022-12-22T21:52:55.842Z,3.20
2022-12-22T21:53:55.829Z,2.70
2022-12-22T21:54:55.793Z,2.90
2022-12-22T21:55:55.840Z,2.30
2022-12-22T21:56:55.805Z,2.40
2022-12-22T21:57:56.073Z,1.70
2022-12-22T21:59:01.886Z,2.30
2022-12-22T21:59:56.778Z,3.20
2022-12-22T22:00:55.803Z,2.10
2022-12-22T22:01:55.920Z,2.50
2022-12-22T22:02:55.919Z,3.30
2022-12-22T22:03:55.797Z,3.40
2022-12-22T22:04:55.766Z,2.90
2022-12-22T22:05:55.783Z,3.10
2022-12-22T22:06:55.749Z,2.60
2022-12-22T22:07:55.770Z,2.80
2022-12-22T22:08:55.760Z,2.60
2022-12-22T22:09:55.704Z,2.70
2022-12-22T22:10:55.700Z,2.80
2022-12-22T22:11:55.723Z,2.90
2022-12-22T22:12:55.757Z,2.80
2022-12-22T22:13:55.798Z,2.70
2022-12-22T22:14:55.719Z,3.90
2022-12-22T22:15:55.773Z,4.90
2022-12-22T22:16:55.714Z,2.00
2022-12-22T22:17:58.620Z,2.10
2022-12-22T22:18:56.684Z,2.40
2022-12-22T22:19:55.635Z,2.40
2022-12-22T22:20:55.648Z,2.60
2022-12-22T22:21:55.662Z,2.20
2022-12-22T22:22:55.663Z,2.60
2022-12-22T22:23:55.645Z,2.80
2022-12-22T22:24:55.657Z,3.20
2022-12-22T22:25:55.632Z,3.70
2022-12-22T22:26:55.626Z,2.40
2022-12-22T22:27:55.600Z,2.70
2022-12-22T22:28:55.665Z,2.40
2022-12-22T22:29:55.705Z,2.80
2022-12-22T22:30:55.660Z,2.70
2022-12-22T22:31:55.588Z,2.80
2022-12-22T22:32:55.584Z,2.30
2022-12-22T22:33:55.596Z,2.60
2022-12-22T22:34:55.576Z,2.60
2022-12-22T22:35:59.374Z,2.30
2022-12-22T22:36:56.594Z,2.40
2022-12-22T22:37:55.596Z,2.90
2022-12-22T22:38:55.572Z,1.80
2022-12-22T22:39:55.547Z,1.90
2022-12-22T22:40:55.675Z,2.50
2022-12-22T22:41:55.516Z,4.40
2022-12-22T22:42:55.527Z,1.70
2022-12-22T22:43:55.563Z,2.50
2022-12-22T22:44:55.503Z,1.30
2022-12-22T22:45:55.511Z,1.80